»·PEaware :: QXE751 KSEA-KGEG

QXE751 :: KSEA-KGEG

FLIGHT INFORMATION

Flight Status: Arrived
Operator:
Horizon Air
More flights by this operator :: More flights under this callsign
Pilot: Mitchell L. (19304)
Aircraft: DEHAVILLAND DASH 8 400
(DH8D)
More flights by this aircraft type
Origin: KSEA Seattle-Tacoma Intl
United States
Destination: KGEG Spokane Intl
United States
More flights between these airports :: More routes between these airports
Route: SEA6 ZADON ZELAK ZIRAN ZOOMR ZOOMR1
File this flight plan on PilotEdge
Remarks:
Altitude:
(Current/Filed)
19,000ft
Speed:
(Current/Filed)
400kts
Departed: 03-Jul-18 10:48 AM
Arrived: 03-Jul-18 11:38 AM
Distance/Time
Traveled:
194nm/0:50
Distance/Time
To Go:
Arrived

Flight Plot

Page will automatically refresh every two minutes.

Flight plan parsing failed; only flown route is shown


Map Options




Map Legend


Flown Route
Filed Route
Departure Airport
Arrival Airport
Navaid (VOR, NDB)
Fix

Horizontal Profiles

Position Reports

Time Latitude Longitude Heading Altitude Ground
Speed
03-Jul-18 10:16 47.446583 -122.303394 230 440ft 0kts
03-Jul-18 10:17 47.446583 -122.303394 230 440ft 0kts
03-Jul-18 10:18 47.446583 -122.303394 230 440ft 0kts
03-Jul-18 10:19 47.446583 -122.303394 230 440ft 0kts
03-Jul-18 10:20 47.446583 -122.303394 230 440ft 0kts
03-Jul-18 10:21 47.446583 -122.303394 230 440ft 0kts
03-Jul-18 10:22 47.446583 -122.303394 230 440ft 0kts
03-Jul-18 10:23 47.446583 -122.303394 230 440ft 0kts
03-Jul-18 10:23 47.446583 -122.303394 230 440ft 0kts
03-Jul-18 10:24 47.446583 -122.303394 230 440ft 0kts
03-Jul-18 10:25 47.446583 -122.303394 230 440ft 0kts
03-Jul-18 10:26 47.446583 -122.303394 230 440ft 0kts
03-Jul-18 10:27 47.446583 -122.303394 230 440ft 0kts
03-Jul-18 10:28 47.446583 -122.303394 230 440ft 0kts
03-Jul-18 10:29 47.446583 -122.303394 230 440ft 0kts
03-Jul-18 10:30 47.446583 -122.303394 230 440ft 0kts
03-Jul-18 10:31 47.446583 -122.303394 230 440ft 0kts
03-Jul-18 10:32 47.446583 -122.303394 230 440ft 0kts
03-Jul-18 10:33 47.446583 -122.303394 230 440ft 0kts
03-Jul-18 10:34 47.446583 -122.303394 230 440ft 0kts
03-Jul-18 10:35 47.446583 -122.303394 230 440ft 0kts
03-Jul-18 10:36 47.446583 -122.303394 230 440ft 0kts
03-Jul-18 10:37 47.446583 -122.303394 230 440ft 0kts
03-Jul-18 10:38 47.446583 -122.303394 230 440ft 0kts
03-Jul-18 10:39 47.446725 -122.303140 229 440ft 2kts
03-Jul-18 10:40 47.446858 -122.302384 287 440ft 0kts
03-Jul-18 10:41 47.447092 -122.303068 310 440ft 0kts
03-Jul-18 10:42 47.447092 -122.303068 310 440ft 0kts
03-Jul-18 10:43 47.447093 -122.303069 310 440ft 0kts
03-Jul-18 10:44 47.448378 -122.306151 324 440ft 8kts
03-Jul-18 10:45 47.453136 -122.306189 359 440ft 24kts
03-Jul-18 10:46 47.460768 -122.306111 1 440ft 30kts
03-Jul-18 10:47 47.463729 -122.306485 295 440ft 0kts
03-Jul-18 10:48 47.461368 -122.307763 181 440ft 69kts
03-Jul-18 10:49 47.418728 -122.306696 179 1830ft 194kts
03-Jul-18 10:50 47.352624 -122.306153 180 3281ft 268kts
03-Jul-18 10:51 47.281756 -122.303653 178 5743ft 254kts
03-Jul-18 10:52 47.251363 -122.237498 51 8209ft 255kts
03-Jul-18 10:53 47.304494 -122.163539 46 10817ft 276kts
03-Jul-18 10:54 47.357555 -122.077828 46 13110ft 297kts
03-Jul-18 10:55 47.414127 -121.984589 46 15206ft 312kts
03-Jul-18 10:56 47.472063 -121.888625 46 17273ft 316kts
03-Jul-18 10:57 47.530639 -121.791252 46 18932ft 325kts
03-Jul-18 10:58 47.559722 -121.661583 86 19238ft 363kts
03-Jul-18 10:59 47.559200 -121.509314 89 19232ft 379kts
03-Jul-18 11:00 47.556967 -121.352766 89 19207ft 384kts
03-Jul-18 11:01 47.554508 -121.198733 89 19153ft 386kts
03-Jul-18 11:02 47.551749 -121.040168 89 19145ft 388kts
03-Jul-18 11:03 47.548779 -120.881005 89 19146ft 390kts
03-Jul-18 11:04 47.545561 -120.720946 89 19145ft 390kts
03-Jul-18 11:05 47.542122 -120.560781 89 19140ft 390kts
03-Jul-18 11:06 47.537996 -120.401509 91 19136ft 387kts
03-Jul-18 11:07 47.531233 -120.249144 91 19135ft 382kts
03-Jul-18 11:08 47.524181 -120.097823 91 19127ft 380kts
03-Jul-18 11:09 47.516747 -119.942957 91 19127ft 375kts
03-Jul-18 11:10 47.509192 -119.789823 91 19134ft 372kts
03-Jul-18 11:11 47.501472 -119.637375 91 19137ft 370kts
03-Jul-18 11:12 47.493669 -119.487441 91 19136ft 363kts
03-Jul-18 11:13 47.485886 -119.341590 92 19138ft 354kts
03-Jul-18 11:14 47.478211 -119.200739 92 18154ft 346kts
03-Jul-18 11:15 47.470457 -119.061637 92 16257ft 335kts
03-Jul-18 11:16 47.462927 -118.929206 92 14790ft 308kts
03-Jul-18 11:17 47.455816 -118.806792 93 13834ft 293kts
03-Jul-18 11:18 47.448769 -118.688022 93 12956ft 295kts
03-Jul-18 11:19 47.441448 -118.566621 93 12040ft 297kts
03-Jul-18 11:20 47.434160 -118.447640 93 12012ft 289kts
03-Jul-18 11:21 47.427144 -118.335062 93 12003ft 286kts
03-Jul-18 11:22 47.443883 -118.222563 71 12001ft 281kts
03-Jul-18 11:23 47.466265 -118.112487 71 12001ft 280kts
03-Jul-18 11:24 47.497975 -118.009364 54 12004ft 276kts
03-Jul-18 11:25 47.540171 -117.914443 54 12001ft 276kts
03-Jul-18 11:26 47.583822 -117.816528 54 10532ft 291kts
03-Jul-18 11:27 47.627738 -117.718809 54 8444ft 280kts
03-Jul-18 11:28 47.676815 -117.638692 44 7157ft 243kts
03-Jul-18 11:29 47.717100 -117.575264 44 6995ft 193kts
03-Jul-18 11:30 47.754062 -117.516991 44 6906ft 196kts
03-Jul-18 11:31 47.790108 -117.460621 44 5439ft 185kts
03-Jul-18 11:32 47.787159 -117.399202 134 4552ft 176kts
03-Jul-18 11:34 47.747604 -117.374613 193 3839ft 166kts
03-Jul-18 11:35 47.709825 -117.399529 226 3695ft 132kts
03-Jul-18 11:36 47.683646 -117.439225 227 3841ft 142kts
03-Jul-18 11:37 47.655674 -117.481426 227 3076ft 133kts
03-Jul-18 11:38 47.631919 -117.517246 229 2440ft 111kts
03-Jul-18 11:39 47.620566 -117.534820 247 2382ft 23kts
03-Jul-18 11:40 47.620568 -117.538332 41 2382ft 7kts
03-Jul-18 11:41 47.622930 -117.535287 339 2382ft 13kts
03-Jul-18 11:42 47.624404 -117.535321 294 2382ft 3kts
03-Jul-18 11:43 47.624445 -117.535448 294 2382ft 0kts
03-Jul-18 11:44 47.624445 -117.535448 294 2382ft 0kts

Navigation Log

Ident Type
Flight plan parsing failed, navigation log unavailable